This is the latest recevied weather packets stored in our database for station/object OE6PWE-13. If no packets are shown the sender has not sent any weather packets the latest 10 day(s).
| Time | Temp. | Humidity | Pressure | Rain* | Wind** | Luminosity | Snow |
|---|---|---|---|---|---|---|---|
| 1777944621 | 7.78° C | 90% | 1013 hPa | 0 mm | - | - | - |
| 1777943714 | 8.33° C | 89% | 1013 hPa | 0 mm | - | - | - |
| 1777942820 | 8.33° C | 88% | 1013 hPa | 0 mm | - | - | - |
| 1777941914 | 8.33° C | 88% | 1013 hPa | 0 mm | - | - | - |
| 1777941022 | 8.89° C | 87% | 1013 hPa | 0 mm | - | - | - |
| 1777940113 | 9.44° C | 85% | 1013 hPa | 0 mm | - | - | - |
| 1777939219 | 9.44° C | 85% | 1013 hPa | 0 mm | - | - | - |
| 1777938314 | 9.44° C | 85% | 1013 hPa | 0 mm | - | - | - |
| 1777937422 | 10° C | 84% | 1013 hPa | 0 mm | - | - | - |
| 1777936514 | 10° C | 82% | 1013 hPa | 0 mm | - | - | - |
| 1777935622 | 10.56° C | 82% | 1013 hPa | 0 mm | - | - | - |
| 1777934713 | 11.11° C | 80% | 1013 hPa | 0 mm | - | - | - |
| 1777933821 | 11.67° C | 78% | 1013 hPa | 0 mm | - | - | - |
| 1777932913 | 12.22° C | 76% | 1013 hPa | 0 mm | - | - | - |
| 1777932023 | 12.22° C | 78% | 1013 hPa | 0 mm | - | - | - |
| 1777931113 | 12.78° C | 74% | 1013 hPa | 0 mm | - | - | - |
| 1777930219 | 13.89° C | 71% | 1013 hPa | 0 mm | - | - | - |
| 1777929313 | 14.44° C | 66% | 1013 hPa | 0 mm | - | - | - |
| 1777928420 | 15.56° C | 64% | 1013 hPa | 0 mm | - | - | - |
| 1777927513 | 16.67° C | 60% | 1013 hPa | 0 mm | - | - | - |
| 1777926620 | 17.22° C | 58% | 1012 hPa | 0 mm | - | - | - |
| 1777925713 | 18.33° C | 54% | 1012 hPa | 0 mm | - | - | - |
| 1777924819 | 18.89° C | 50% | 1012 hPa | 0 mm | - | - | - |
| 1777923913 | 19.44° C | 49% | 1012 hPa | 0 mm | - | - | - |
| 1777923021 | 19.44° C | 49% | 1012 hPa | 0 mm | - | - | - |
* Rain latest hour (hover to see other rain measurements)
** Current wind speed in m/s (hover to see current wind gust speed)